Estación Meteorológica Peña el Pijo (Robertgarden) [ 07/19/24 12:18:57 CEST ]

Fecha Hora Presion(HPa) Temp (°C) Humedad % Rocio (°C) Viento ( m/s) Direccion Lluvia 1Hora(mm) Lluvia 24H(mm) LLuvia Total(mm)
2008-Mar-15 01:05:18 1018.200 6.9 45 -4.3         28.47
2008-Mar-15 02:05:23 1017.900 6.1 48 -4.1         28.47
2008-Mar-15 03:05:13 1017.100 5.3 51 -4.1         28.47
2008-Mar-15 04:05:14 1016.800 4.7 55 -3.6         28.47
2008-Mar-15 05:05:22 1016.400 4.2 57 -3.6         28.47
2008-Mar-15 06:05:53 1016.100 3.9 61 -3.0         28.47
2008-Mar-15 07:05:14 1016.000 4.4 63 -2.1         28.47
2008-Mar-15 08:05:17 1016.100 6.3 60 -0.9         28.47
2008-Mar-15 09:05:23 1016.100 16.6 36 1.3 0.4 WSW     28.47
2008-Mar-15 10:05:18 1016.300 22.9 25 1.6 1.2 ESE     28.47
2008-Mar-15 11:05:12 1016.200 22.9 24 1.1         28.47
2008-Mar-15 12:05:14 1015.800 26.5 20 1.8 1.1 SE     28.47
2008-Mar-15 13:05:34 1016.100 26.3 15 -3.1 2.2 N     28.47
2008-Mar-15 14:05:17 1015.800 25.4 20 0.8 1.3 SSW     28.47
2008-Mar-15 15:05:25 1016.800 21.0 31 3.2 1.8 SSE     28.47
2008-Mar-15 16:05:15 1016.700 18.8 36 3.3 2.9 S     28.47
2008-Mar-15 17:05:25 1016.600 21.8 29 3.0 0.4 NE     28.47
2008-Mar-15 18:05:35 1016.800 19.8 29 1.2 1.8 WNW     28.47
2008-Mar-15 19:05:19 1017.300 12.9 49 2.4 1.5 ESE     28.47
2008-Mar-15 20:05:18 1017.500 11.3 56 2.8 1.8 S     28.47
2008-Mar-15 21:05:14 1017.900 10.8 55 2.1 3.0 S     28.47
2008-Mar-15 22:05:18 1018.300 10.3 55 1.6         28.47
2008-Mar-15 23:05:14 1019.000 9.6 58 1.7 2.7 S     28.47

Temperatura Máxima:26°    Temperatura Mínima:
Presión Máxima:1019.000 Hpa    Presión Mínima:1015.800 Hpa


Volver